createdAt,value
2018-02-10T00:02:16.231Z,14.45
2018-02-10T00:04:44.597Z,16.42
2018-02-10T00:07:12.999Z,14.60
2018-02-10T00:09:41.403Z,16.05
2018-02-10T00:12:09.830Z,15.23
2018-02-10T00:14:38.247Z,14.95
2018-02-10T00:17:06.739Z,15.40
2018-02-10T00:19:35.133Z,16.08
2018-02-10T00:22:03.536Z,15.82
2018-02-10T00:24:31.925Z,15.82
2018-02-10T00:27:00.313Z,15.18
2018-02-10T00:29:28.774Z,15.10
2018-02-10T00:31:57.191Z,14.48
2018-02-10T00:34:25.584Z,14.63
2018-02-10T00:36:54.000Z,12.23
2018-02-10T00:39:22.473Z,14.13
2018-02-10T00:41:50.965Z,14.07
2018-02-10T00:44:19.389Z,14.73
2018-02-10T00:46:47.840Z,15.60
2018-02-10T00:49:16.207Z,14.57
2018-02-10T00:51:44.681Z,13.55
2018-02-10T00:54:13.069Z,15.05
2018-02-10T00:56:41.486Z,15.73
2018-02-10T00:59:09.873Z,14.55
2018-02-10T01:01:38.362Z,15.27
2018-02-10T01:04:06.739Z,15.57
2018-02-10T01:06:35.163Z,15.73
2018-02-10T01:09:03.568Z,16.92
2018-02-10T01:11:31.980Z,16.85
2018-02-10T01:14:00.393Z,15.55
2018-02-10T01:16:28.860Z,16.25
2018-02-10T01:18:57.293Z,16.62
2018-02-10T01:21:25.701Z,15.80
2018-02-10T01:23:54.268Z,16.52
2018-02-10T01:26:22.663Z,18.05
2018-02-10T01:28:51.068Z,19.12
2018-02-10T01:31:19.470Z,17.08
2018-02-10T01:33:47.850Z,19.10
2018-02-10T01:36:16.377Z,18.62
2018-02-10T01:38:44.770Z,17.17
2018-02-10T01:41:13.157Z,19.58
2018-02-10T01:43:41.551Z,18.77
2018-02-10T01:46:09.942Z,17.77
2018-02-10T01:48:38.430Z,16.35
2018-02-10T01:51:06.829Z,17.62
2018-02-10T01:53:35.238Z,18.15
2018-02-10T01:56:03.728Z,18.25
2018-02-10T01:58:32.194Z,17.77
2018-02-10T02:01:00.606Z,15.95
2018-02-10T02:03:29.003Z,16.25
2018-02-10T02:05:57.422Z,16.85
2018-02-10T02:08:25.826Z,17.52
2018-02-10T02:10:54.312Z,18.60
2018-02-10T02:13:22.705Z,17.75
2018-02-10T02:15:51.113Z,18.75
2018-02-10T02:18:19.532Z,19.55
2018-02-10T02:20:48.103Z,19.33
2018-02-10T02:23:16.481Z,18.62
2018-02-10T02:25:44.873Z,18.50
2018-02-10T02:28:13.248Z,19.10
2018-02-10T02:30:41.615Z,17.15
2018-02-10T02:33:10.168Z,17.70
2018-02-10T02:35:38.563Z,18.50
2018-02-10T02:38:06.971Z,17.90
2018-02-10T02:40:35.365Z,18.02
2018-02-10T02:43:03.835Z,15.65
2018-02-10T02:45:32.250Z,16.73
2018-02-10T02:48:00.719Z,17.65
2018-02-10T02:50:29.187Z,15.75
2018-02-10T02:52:57.564Z,18.20
2018-02-10T02:55:26.158Z,15.30
2018-02-10T02:57:54.593Z,17.70
2018-02-10T03:00:22.960Z,16.10
2018-02-10T03:02:51.409Z,15.07
2018-02-10T03:05:19.806Z,18.17
2018-02-10T03:07:48.219Z,17.42
2018-02-10T03:10:16.751Z,17.95
2018-02-10T03:12:45.122Z,16.52
2018-02-10T03:15:13.529Z,17.10
2018-02-10T03:17:41.990Z,15.95
2018-02-10T03:20:10.351Z,15.35
2018-02-10T03:22:38.832Z,17.20
2018-02-10T03:25:07.238Z,16.48
2018-02-10T03:27:35.703Z,16.05
2018-02-10T03:30:04.075Z,19.17
2018-02-10T03:32:32.545Z,17.35
2018-02-10T03:35:00.913Z,17.55
2018-02-10T03:37:29.287Z,18.90
2018-02-10T03:39:58.030Z,18.25
2018-02-10T03:42:26.453Z,20.70
2018-02-10T03:44:54.848Z,19.67
2018-02-10T03:47:23.251Z,19.52
2018-02-10T03:49:51.605Z,20.70
2018-02-10T03:52:20.159Z,20.75
2018-02-10T03:54:48.665Z,20.80
2018-02-10T03:57:17.031Z,19.85
2018-02-10T03:59:45.443Z,22.65
2018-02-10T04:02:13.830Z,21.67
2018-02-10T04:04:42.206Z,21.12
2018-02-10T04:07:10.623Z,20.45
2018-02-10T04:09:39.023Z,21.20
2018-02-10T04:12:07.551Z,22.48
2018-02-10T04:14:35.926Z,22.10
2018-02-10T04:17:04.331Z,19.70
2018-02-10T04:19:32.733Z,21.62
2018-02-10T04:22:01.195Z,22.50
2018-02-10T04:24:29.559Z,21.77
2018-02-10T04:26:57.954Z,21.10
2018-02-10T04:29:26.360Z,20.88
2018-02-10T04:31:54.754Z,22.48
2018-02-10T04:34:23.200Z,21.52
2018-02-10T04:36:51.606Z,21.67
2018-02-10T04:39:20.092Z,22.25
2018-02-10T04:41:48.503Z,21.27
2018-02-10T04:44:16.900Z,21.90
2018-02-10T04:46:45.290Z,21.87
2018-02-10T04:49:13.662Z,20.30
2018-02-10T04:51:42.052Z,22.98
2018-02-10T04:54:10.436Z,22.33
2018-02-10T04:56:38.871Z,20.90
2018-02-10T04:59:07.287Z,20.33
2018-02-10T05:01:35.701Z,21.33
2018-02-10T05:04:04.104Z,22.83
2018-02-10T05:06:32.582Z,20.88
2018-02-10T05:09:01.343Z,20.77
2018-02-10T05:11:29.733Z,21.83
2018-02-10T05:13:58.096Z,20.67
2018-02-10T05:16:26.488Z,20.65
2018-02-10T05:18:54.922Z,22.73
2018-02-10T05:21:23.348Z,20.40
2018-02-10T05:23:51.717Z,20.90
2018-02-10T05:26:20.114Z,20.12
2018-02-10T05:28:48.551Z,20.27
2018-02-10T05:31:16.995Z,21.83
2018-02-10T05:33:45.464Z,19.08
2018-02-10T05:36:13.866Z,20.23
2018-02-10T05:38:42.272Z,21.55
2018-02-10T05:41:10.679Z,21.20
2018-02-10T05:43:39.044Z,21.33
2018-02-10T05:46:07.698Z,20.48
2018-02-10T05:48:36.077Z,20.77
2018-02-10T05:51:04.441Z,20.95
2018-02-10T05:53:32.822Z,20.23
2018-02-10T05:56:01.223Z,20.30
2018-02-10T05:58:29.629Z,21.00
2018-02-10T06:00:58.013Z,21.73
2018-02-10T06:03:27.037Z,20.35
2018-02-10T06:05:55.463Z,19.95
2018-02-10T06:08:23.875Z,20.48
2018-02-10T06:10:52.274Z,20.77
2018-02-10T06:13:20.751Z,20.88
2018-02-10T06:15:49.198Z,18.30
2018-02-10T06:18:17.606Z,20.23
2018-02-10T06:20:46.065Z,17.75
2018-02-10T06:23:14.856Z,17.50
2018-02-10T06:25:43.217Z,18.25
2018-02-10T06:28:11.637Z,19.20
2018-02-10T06:30:40.051Z,18.50
2018-02-10T06:33:08.549Z,18.50
2018-02-10T06:35:36.973Z,18.12
2018-02-10T06:38:05.374Z,19.00
2018-02-10T06:40:33.790Z,18.55
2018-02-10T06:43:02.182Z,19.15
2018-02-10T06:45:30.699Z,19.15
2018-02-10T06:47:59.130Z,19.37
2018-02-10T06:50:27.711Z,18.05
2018-02-10T06:52:56.091Z,17.20
2018-02-10T06:55:24.487Z,18.62
2018-02-10T06:57:52.902Z,20.12
2018-02-10T07:00:21.312Z,17.85
2018-02-10T07:02:49.782Z,18.27
2018-02-10T07:05:18.189Z,16.70
2018-02-10T07:07:46.622Z,16.87
2018-02-10T07:10:15.019Z,17.85
2018-02-10T07:12:43.417Z,18.08
2018-02-10T07:15:11.987Z,18.60
2018-02-10T07:17:40.384Z,21.17
2018-02-10T07:20:08.803Z,19.85
2018-02-10T07:22:37.201Z,21.50
2018-02-10T07:25:05.687Z,19.95
2018-02-10T07:27:34.463Z,21.30
2018-02-10T07:30:02.867Z,19.35
2018-02-10T07:32:31.291Z,19.77
2018-02-10T07:34:59.706Z,18.48
2018-02-10T07:37:28.081Z,16.98
2018-02-10T07:39:56.536Z,14.87
2018-02-10T07:42:25.037Z,17.00
2018-02-10T07:44:53.438Z,16.60
2018-02-10T07:47:21.837Z,16.83
2018-02-10T07:49:50.228Z,15.85
2018-02-10T07:52:18.649Z,14.25
2018-02-10T07:54:47.036Z,13.77
2018-02-10T07:57:15.504Z,16.10
2018-02-10T07:59:43.914Z,16.02
2018-02-10T08:02:12.302Z,14.93
2018-02-10T08:04:40.704Z,14.45
2018-02-10T08:07:09.175Z,16.55
2018-02-10T08:09:38.125Z,13.45
2018-02-10T08:12:06.547Z,14.73
2018-02-10T08:14:34.967Z,13.15
2018-02-10T08:17:03.371Z,14.43
2018-02-10T08:19:31.760Z,14.55
2018-02-10T08:22:00.371Z,16.17
2018-02-10T08:24:28.779Z,14.48
2018-02-10T08:26:57.283Z,13.10
2018-02-10T08:29:25.686Z,12.68
2018-02-10T08:31:54.168Z,15.20
2018-02-10T08:34:22.689Z,14.73
2018-02-10T08:36:51.136Z,14.87
2018-02-10T08:39:19.550Z,14.50
2018-02-10T08:41:47.991Z,12.40
2018-02-10T08:44:16.427Z,11.00
2018-02-10T08:46:45.309Z,11.48
2018-02-10T08:49:13.884Z,12.48
2018-02-10T08:51:42.300Z,13.05
2018-02-10T08:54:11.604Z,12.15
2018-02-10T08:56:40.011Z,14.18
2018-02-10T08:59:08.429Z,12.98
2018-02-10T09:01:37.305Z,23.75
2018-02-10T09:04:05.742Z,12.98
2018-02-10T09:06:34.138Z,12.50
2018-02-10T09:09:02.553Z,10.63
2018-02-10T09:11:31.192Z,10.60
2018-02-10T09:13:59.676Z,11.10
2018-02-10T09:16:28.122Z,10.10
2018-02-10T09:18:56.534Z,11.40
2018-02-10T09:21:24.922Z,10.20
2018-02-10T09:23:53.327Z,9.77
2018-02-10T09:26:21.823Z,8.30
2018-02-10T09:28:50.205Z,7.53
2018-02-10T09:31:18.668Z,7.40
2018-02-10T09:33:47.080Z,7.30
2018-02-10T09:36:15.501Z,6.93
2018-02-10T09:38:44.354Z,6.50
2018-02-10T09:41:12.749Z,7.60
2018-02-10T09:43:41.147Z,7.47
2018-02-10T09:46:09.558Z,8.50
2018-02-10T09:48:40.706Z,9.30
2018-02-10T09:51:09.109Z,7.50
2018-02-10T09:53:42.361Z,7.60
2018-02-10T09:56:10.745Z,8.77
2018-02-10T09:58:39.151Z,8.20
2018-02-10T10:01:07.555Z,7.90
2018-02-10T10:03:36.055Z,8.97
2018-02-10T10:06:04.499Z,8.20
2018-02-10T10:08:33.009Z,11.23
2018-02-10T10:11:01.485Z,10.30
2018-02-10T10:13:29.992Z,8.87
2018-02-10T10:15:58.475Z,10.40
2018-02-10T10:18:27.211Z,9.43
2018-02-10T10:20:55.583Z,9.67
2018-02-10T10:23:23.991Z,11.60
2018-02-10T10:25:52.387Z,14.97
2018-02-10T10:28:20.782Z,10.90
2018-02-10T10:30:49.231Z,10.67
2018-02-10T10:33:17.655Z,12.00
2018-02-10T10:35:46.057Z,10.60
2018-02-10T10:38:14.516Z,10.60
2018-02-10T10:40:42.946Z,11.03
2018-02-10T10:43:11.483Z,11.43
2018-02-10T10:45:39.925Z,12.17
2018-02-10T10:48:08.328Z,12.27
2018-02-10T10:50:36.732Z,12.50
2018-02-10T10:53:05.154Z,11.50
2018-02-10T10:55:33.553Z,13.90
2018-02-10T10:58:02.088Z,12.13
2018-02-10T11:00:30.484Z,12.97
2018-02-10T11:02:58.912Z,13.47
2018-02-10T11:05:27.391Z,14.37
2018-02-10T11:07:55.754Z,14.43
2018-02-10T11:10:24.235Z,14.20
2018-02-10T11:12:52.666Z,20.03
2018-02-10T11:15:21.063Z,14.10
2018-02-10T11:17:49.547Z,13.97
2018-02-10T11:20:17.972Z,14.10
2018-02-10T11:22:46.361Z,12.67
2018-02-10T11:25:14.784Z,13.47
2018-02-10T11:27:43.235Z,13.00
2018-02-10T11:30:11.654Z,12.37
2018-02-10T11:32:40.037Z,13.80
2018-02-10T11:35:08.502Z,14.27
2018-02-10T11:37:36.973Z,13.57
2018-02-10T11:40:05.374Z,15.00
2018-02-10T11:42:33.808Z,13.30
2018-02-10T11:45:02.231Z,13.90
2018-02-10T11:47:30.647Z,14.67
2018-02-10T11:49:59.041Z,14.37
2018-02-10T11:52:27.444Z,16.27
2018-02-10T11:54:55.882Z,14.90
2018-02-10T11:57:24.362Z,13.67
2018-02-10T11:59:52.763Z,14.70
2018-02-10T12:02:21.232Z,14.00
2018-02-10T12:04:49.640Z,13.90
2018-02-10T12:07:18.050Z,15.27
2018-02-10T12:09:46.540Z,13.03
2018-02-10T12:12:14.944Z,13.47
2018-02-10T12:14:43.348Z,13.30
2018-02-10T12:17:11.878Z,12.23
2018-02-10T12:19:40.351Z,13.53
2018-02-10T12:22:08.790Z,13.10
2018-02-10T12:24:37.210Z,13.33
2018-02-10T12:27:05.615Z,14.00
2018-02-10T12:29:34.043Z,14.20
2018-02-10T12:32:02.453Z,14.43
2018-02-10T12:34:30.915Z,14.50
2018-02-10T12:36:59.332Z,12.70
2018-02-10T12:39:27.739Z,14.98
2018-02-10T12:41:56.247Z,14.98
2018-02-10T12:44:24.655Z,12.95
2018-02-10T12:46:53.134Z,13.73
2018-02-10T12:49:37.644Z,15.25
2018-02-10T12:52:06.108Z,13.97
2018-02-10T12:54:34.516Z,14.47
2018-02-10T12:57:02.935Z,12.48
2018-02-10T12:59:31.355Z,14.35
2018-02-10T13:01:59.793Z,14.57
2018-02-10T13:04:28.275Z,13.15
2018-02-10T13:06:56.702Z,10.48
2018-02-10T13:09:25.112Z,10.38
2018-02-10T13:11:53.630Z,11.85
2018-02-10T13:14:22.052Z,10.70
2018-02-10T13:16:50.633Z,12.48
2018-02-10T13:19:19.045Z,11.30
2018-02-10T13:21:47.471Z,11.50
2018-02-10T13:24:15.878Z,10.07
2018-02-10T13:26:44.276Z,9.27
2018-02-10T13:29:12.782Z,11.73
2018-02-10T13:31:41.217Z,9.63
2018-02-10T13:34:09.697Z,10.25
2018-02-10T13:36:38.097Z,9.75
2018-02-10T13:39:06.516Z,10.30
2018-02-10T13:41:34.985Z,10.90
2018-02-10T13:44:03.533Z,10.80
2018-02-10T13:46:32.038Z,9.35
2018-02-10T13:49:00.468Z,9.50
2018-02-10T13:51:28.960Z,9.38
2018-02-10T13:53:57.459Z,8.38
2018-02-10T13:56:25.866Z,9.25
2018-02-10T13:58:54.380Z,8.25
2018-02-10T14:01:22.880Z,8.73
2018-02-10T14:03:52.275Z,8.85
2018-02-10T14:06:20.937Z,13.90
2018-02-10T14:08:49.345Z,8.82
2018-02-10T14:11:17.756Z,7.55
2018-02-10T14:13:46.181Z,8.07
2018-02-10T14:16:14.601Z,7.55
2018-02-10T14:18:43.042Z,8.73
2018-02-10T14:21:11.437Z,7.28
2018-02-10T14:23:39.890Z,6.90
2018-02-10T14:26:08.316Z,7.05
2018-02-10T14:28:36.775Z,7.75
2018-02-10T14:31:05.287Z,7.87
2018-02-10T14:33:33.675Z,8.13
2018-02-10T14:36:02.063Z,8.02
2018-02-10T14:38:30.470Z,9.30
2018-02-10T14:40:58.916Z,8.10
2018-02-10T14:43:27.323Z,8.07
2018-02-10T14:45:55.910Z,8.57
2018-02-10T14:48:24.308Z,8.60
2018-02-10T14:50:52.732Z,9.05
2018-02-10T14:53:21.146Z,7.40
2018-02-10T14:55:49.528Z,7.72
2018-02-10T14:58:18.003Z,8.05
2018-02-10T15:00:46.409Z,8.55
2018-02-10T15:03:14.820Z,8.48
2018-02-10T15:05:43.230Z,7.28
2018-02-10T15:08:11.623Z,9.23
2018-02-10T15:10:40.156Z,7.15
2018-02-10T15:13:08.544Z,8.85
2018-02-10T15:15:37.009Z,8.98
2018-02-10T15:18:05.436Z,9.25
2018-02-10T15:20:33.850Z,8.73
2018-02-10T15:23:02.290Z,9.48
2018-02-10T15:25:30.692Z,8.68
2018-02-10T15:27:59.146Z,10.60
2018-02-10T15:30:39.905Z,18.10
2018-02-10T15:33:21.001Z,13.82
2018-02-10T15:35:49.512Z,10.27
2018-02-10T15:38:18.060Z,12.80
2018-02-10T15:40:46.454Z,9.02
2018-02-10T15:43:14.887Z,10.32
2018-02-10T15:45:43.371Z,9.60
2018-02-10T15:48:11.755Z,9.57
2018-02-10T15:50:40.170Z,10.52
2018-02-10T15:53:08.677Z,10.07
2018-02-10T15:55:37.089Z,10.63
2018-02-10T15:58:05.516Z,10.35
2018-02-10T16:00:33.927Z,9.30
2018-02-10T16:03:02.354Z,9.50
2018-02-10T16:05:30.753Z,9.65
2018-02-10T16:07:59.174Z,9.70
2018-02-10T16:10:27.727Z,10.00
2018-02-10T16:12:56.132Z,9.73
2018-02-10T16:15:24.547Z,9.38
2018-02-10T16:17:52.960Z,6.87
2018-02-10T16:20:21.342Z,6.80
2018-02-10T16:22:49.974Z,7.82
2018-02-10T16:25:18.375Z,9.65
2018-02-10T16:27:46.778Z,9.27
2018-02-10T16:30:15.300Z,10.27
2018-02-10T16:32:43.698Z,11.90
2018-02-10T16:35:12.136Z,10.50
2018-02-10T16:37:40.551Z,8.85
2018-02-10T16:40:08.981Z,8.10
2018-02-10T16:42:37.373Z,8.85
2018-02-10T16:45:06.154Z,10.00
2018-02-10T16:47:34.585Z,9.43
2018-02-10T16:50:02.978Z,5.82
2018-02-10T16:52:31.375Z,5.80
2018-02-10T16:54:59.763Z,5.45
2018-02-10T16:57:28.214Z,6.53
2018-02-10T16:59:56.617Z,7.03
2018-02-10T17:02:25.328Z,9.10
2018-02-10T17:04:53.723Z,7.90
2018-02-10T17:07:22.097Z,6.72
2018-02-10T17:09:50.514Z,7.15
2018-02-10T17:12:18.918Z,5.53
2018-02-10T17:14:47.469Z,7.00
2018-02-10T17:17:15.862Z,6.03
2018-02-10T17:19:44.243Z,5.72
2018-02-10T17:22:12.679Z,6.70
2018-02-10T17:24:41.127Z,5.20
2018-02-10T17:27:09.514Z,8.57
2018-02-10T17:29:37.982Z,5.95
2018-02-10T17:32:06.395Z,6.05
2018-02-10T17:34:34.783Z,5.95
2018-02-10T17:37:03.190Z,7.85
2018-02-10T17:39:32.061Z,8.65
2018-02-10T17:42:00.450Z,8.27
2018-02-10T17:44:28.857Z,23.95
2018-02-10T17:46:57.305Z,14.15
2018-02-10T17:49:25.711Z,8.18
2018-02-10T17:51:54.194Z,7.30
2018-02-10T17:54:22.582Z,7.90
2018-02-10T17:56:51.003Z,7.43
2018-02-10T17:59:19.408Z,6.80
2018-02-10T18:01:47.912Z,8.30
2018-02-10T18:04:16.347Z,6.82
2018-02-10T18:06:44.770Z,7.45
2018-02-10T18:09:13.265Z,7.25
2018-02-10T18:11:41.676Z,7.65
2018-02-10T18:14:10.069Z,7.50
2018-02-10T18:16:38.535Z,8.63
2018-02-10T18:19:06.933Z,8.30
2018-02-10T18:21:35.412Z,8.43
2018-02-10T18:24:03.818Z,8.60
2018-02-10T18:26:32.235Z,8.65
2018-02-10T18:29:00.972Z,8.05
2018-02-10T18:31:29.362Z,6.55
2018-02-10T18:33:57.783Z,7.75
2018-02-10T18:36:26.192Z,7.55
2018-02-10T18:38:54.621Z,8.15
2018-02-10T18:41:23.061Z,7.62
2018-02-10T18:43:51.462Z,8.55
2018-02-10T18:46:19.857Z,8.07
2018-02-10T18:48:48.296Z,10.70
2018-02-10T18:51:16.706Z,10.60
2018-02-10T18:53:45.190Z,10.68
2018-02-10T18:56:13.630Z,10.38
2018-02-10T18:58:42.103Z,9.52
2018-02-10T19:01:10.565Z,9.65
2018-02-10T19:03:38.953Z,11.00
2018-02-10T19:06:07.389Z,10.43
2018-02-10T19:08:35.786Z,11.75
2018-02-10T19:11:04.234Z,10.05
2018-02-10T19:13:32.766Z,12.88
2018-02-10T19:16:01.167Z,12.43
2018-02-10T19:18:29.615Z,10.23
2018-02-10T19:20:58.053Z,72.85
2018-02-10T19:23:26.611Z,28.75
2018-02-10T19:25:55.030Z,10.70
2018-02-10T19:28:23.458Z,9.88
2018-02-10T19:30:51.969Z,11.07
2018-02-10T19:33:20.366Z,9.65
2018-02-10T19:35:48.755Z,9.90
2018-02-10T19:38:17.167Z,10.40
2018-02-10T19:40:45.806Z,12.00
2018-02-10T19:43:14.230Z,10.27
2018-02-10T19:45:42.647Z,11.18
2018-02-10T19:48:11.113Z,11.40
2018-02-10T19:50:39.515Z,11.40
2018-02-10T19:53:08.131Z,13.88
2018-02-10T19:55:36.587Z,11.77
2018-02-10T19:58:05.103Z,10.10
2018-02-10T20:00:33.501Z,10.13
2018-02-10T20:03:01.907Z,11.30
2018-02-10T20:05:30.710Z,10.70
2018-02-10T20:07:59.114Z,10.10
2018-02-10T20:10:27.528Z,10.15
2018-02-10T20:12:55.932Z,11.45
2018-02-10T20:15:24.331Z,11.23
2018-02-10T20:17:52.753Z,10.80
2018-02-10T20:20:21.171Z,10.73
2018-02-10T20:22:49.657Z,10.48
2018-02-10T20:25:18.221Z,8.30
2018-02-10T20:27:47.684Z,7.93
2018-02-10T20:30:16.162Z,8.98
2018-02-10T20:32:44.589Z,9.80
2018-02-10T20:35:13.174Z,9.05
2018-02-10T20:37:41.599Z,7.43
2018-02-10T20:40:10.008Z,7.32
2018-02-10T20:42:38.426Z,9.70
2018-02-10T20:45:06.942Z,7.12
2018-02-10T20:47:35.412Z,6.72
2018-02-10T20:50:03.803Z,7.95
2018-02-10T20:52:32.203Z,8.00
2018-02-10T20:55:00.592Z,8.55
2018-02-10T20:57:29.065Z,8.55
2018-02-10T20:59:57.594Z,8.20
2018-02-10T21:02:26.403Z,8.15
2018-02-10T21:04:54.801Z,7.80
2018-02-10T21:07:23.214Z,7.03
2018-02-10T21:09:51.604Z,6.30
2018-02-10T21:12:20.051Z,6.82
2018-02-10T21:14:48.459Z,6.90
2018-02-10T21:17:16.865Z,6.55
2018-02-10T21:19:45.269Z,5.50
2018-02-10T21:22:13.670Z,6.82
2018-02-10T21:24:42.112Z,6.30
2018-02-10T21:27:10.519Z,6.62
2018-02-10T21:29:39.455Z,6.78
2018-02-10T21:32:07.883Z,5.95
2018-02-10T21:34:36.279Z,5.60
2018-02-10T21:37:04.657Z,6.55
2018-02-10T21:39:33.081Z,6.37
2018-02-10T21:42:01.779Z,6.37
2018-02-10T21:44:30.191Z,6.87
2018-02-10T21:46:58.597Z,7.22
2018-02-10T21:49:26.969Z,6.60
2018-02-10T21:51:55.353Z,7.18
2018-02-10T21:54:23.778Z,7.15
2018-02-10T21:56:52.190Z,7.90
2018-02-10T21:59:20.667Z,7.80
2018-02-10T22:01:49.044Z,9.35
2018-02-10T22:04:17.417Z,8.75
2018-02-10T22:06:45.838Z,8.98
2018-02-10T22:09:14.204Z,9.00
2018-02-10T22:11:42.642Z,9.38
2018-02-10T22:14:11.157Z,9.30
2018-02-10T22:16:39.547Z,9.82
2018-02-10T22:19:08.084Z,10.70
2018-02-10T22:21:36.535Z,9.80
2018-02-10T22:24:04.938Z,9.13
2018-02-10T22:26:33.355Z,11.68
2018-02-10T22:31:36.373Z,9.20
2018-02-10T22:34:04.807Z,8.90
2018-02-10T22:36:33.221Z,8.27
2018-02-10T22:39:01.601Z,8.10
2018-02-10T22:41:30.024Z,8.98
2018-02-10T22:43:58.405Z,8.02
2018-02-10T22:46:26.843Z,9.55
2018-02-10T22:48:55.260Z,10.30
2018-02-10T22:51:23.745Z,9.82
2018-02-10T22:53:52.118Z,10.25
2018-02-10T22:56:20.514Z,10.15
2018-02-10T22:58:49.014Z,9.73
2018-02-10T23:01:17.434Z,10.20
2018-02-10T23:03:45.894Z,9.68
2018-02-10T23:06:14.328Z,10.40
2018-02-10T23:08:42.710Z,10.70
2018-02-10T23:11:11.122Z,10.40
2018-02-10T23:13:39.501Z,10.02
2018-02-10T23:16:07.905Z,9.82
2018-02-10T23:18:36.407Z,9.60
2018-02-10T23:21:04.804Z,9.70
2018-02-10T23:23:33.193Z,9.30
2018-02-10T23:26:01.566Z,10.15
2018-02-10T23:28:29.952Z,9.40
2018-02-10T23:30:58.328Z,9.38
2018-02-10T23:33:26.881Z,10.43
2018-02-10T23:35:55.273Z,10.70
2018-02-10T23:38:23.663Z,9.43
2018-02-10T23:40:52.043Z,9.00
2018-02-10T23:43:20.471Z,8.48
2018-02-10T23:45:48.872Z,8.45
2018-02-10T23:48:17.259Z,7.68
2018-02-10T23:50:45.701Z,7.47
2018-02-10T23:53:14.079Z,8.80
2018-02-10T23:55:42.450Z,9.63
2018-02-10T23:58:10.934Z,9.40
